createdAt,value
2018-06-13T00:00:42.000Z,39
2018-06-13T00:01:42.000Z,39
2018-06-13T00:02:42.000Z,39
2018-06-13T00:03:42.000Z,39
2018-06-13T00:04:42.000Z,39
2018-06-13T00:05:42.000Z,39
2018-06-13T00:06:42.000Z,39
2018-06-13T00:07:42.000Z,39
2018-06-13T00:09:42.000Z,39
2018-06-13T00:10:42.000Z,39
2018-06-13T00:11:42.000Z,39
2018-06-13T00:13:42.000Z,39
2018-06-13T00:14:42.000Z,39
2018-06-13T00:15:42.000Z,39
2018-06-13T00:16:42.000Z,39
2018-06-13T00:17:42.000Z,39
2018-06-13T00:18:42.000Z,39
2018-06-13T00:19:42.000Z,39
2018-06-13T00:20:42.000Z,39
2018-06-13T00:24:28.000Z,39
2018-06-13T00:25:28.000Z,40
2018-06-13T00:26:28.000Z,40
2018-06-13T00:27:28.000Z,40
2018-06-13T00:29:28.000Z,40
2018-06-13T00:30:28.000Z,40
2018-06-13T00:31:28.000Z,40
2018-06-13T00:32:28.000Z,40
2018-06-13T00:33:28.000Z,40
2018-06-13T00:34:28.000Z,40
2018-06-13T00:35:28.000Z,39
2018-06-13T00:36:28.000Z,40
2018-06-13T00:37:28.000Z,39
2018-06-13T00:38:28.000Z,40
2018-06-13T00:39:28.000Z,39
2018-06-13T00:40:28.000Z,40
2018-06-13T00:41:28.000Z,39
2018-06-13T00:42:28.000Z,40
2018-06-13T00:43:28.000Z,40
2018-06-13T00:44:28.000Z,40
2018-06-13T00:45:28.000Z,40
2018-06-13T00:46:28.000Z,40
2018-06-13T00:47:28.000Z,40
2018-06-13T00:48:28.000Z,39
2018-06-13T00:52:14.000Z,40
2018-06-13T00:53:14.000Z,40
2018-06-13T00:54:14.000Z,40
2018-06-13T00:55:13.000Z,40
2018-06-13T00:56:13.000Z,40
2018-06-13T00:57:13.000Z,40
2018-06-13T00:58:13.000Z,40
2018-06-13T00:59:13.000Z,40
2018-06-13T01:00:13.000Z,40
2018-06-13T01:01:13.000Z,40
2018-06-13T01:02:13.000Z,40
2018-06-13T01:03:13.000Z,40
2018-06-13T01:04:13.000Z,40
2018-06-13T01:05:13.000Z,40
2018-06-13T01:06:13.000Z,40
2018-06-13T01:07:13.000Z,40
2018-06-13T01:08:13.000Z,40
2018-06-13T01:09:13.000Z,40
2018-06-13T01:10:13.000Z,40
2018-06-13T01:11:13.000Z,40
2018-06-13T01:12:13.000Z,40
2018-06-13T01:13:13.000Z,40
2018-06-13T01:14:13.000Z,40
2018-06-13T01:15:13.000Z,40
2018-06-13T01:16:13.000Z,40
2018-06-13T01:17:13.000Z,39
2018-06-13T01:19:13.000Z,39
2018-06-13T01:21:13.000Z,39
2018-06-13T01:22:13.000Z,40
2018-06-13T01:23:13.000Z,40
2018-06-13T01:24:13.000Z,40
2018-06-13T01:25:13.000Z,40
2018-06-13T01:26:13.000Z,40
2018-06-13T01:27:13.000Z,40
2018-06-13T01:28:13.000Z,40
2018-06-13T01:29:13.000Z,40
2018-06-13T01:30:13.000Z,40
2018-06-13T01:31:13.000Z,40
2018-06-13T01:32:13.000Z,40
2018-06-13T01:33:13.000Z,40
2018-06-13T01:34:13.000Z,40
2018-06-13T01:35:13.000Z,40
2018-06-13T01:36:13.000Z,40
2018-06-13T01:37:13.000Z,40
2018-06-13T01:39:13.000Z,40
2018-06-13T01:40:13.000Z,40
2018-06-13T01:41:13.000Z,40
2018-06-13T01:42:13.000Z,40
2018-06-13T01:43:13.000Z,40
2018-06-13T01:45:13.000Z,40
2018-06-13T01:47:13.000Z,40
2018-06-13T01:48:13.000Z,40
2018-06-13T01:49:13.000Z,40
2018-06-13T01:50:13.000Z,40
2018-06-13T01:51:13.000Z,40
2018-06-13T01:52:13.000Z,40
2018-06-13T01:53:13.000Z,40
2018-06-13T01:54:13.000Z,40
2018-06-13T01:55:13.000Z,40
2018-06-13T01:56:13.000Z,40
2018-06-13T01:57:13.000Z,40
2018-06-13T01:58:13.000Z,40
2018-06-13T01:59:13.000Z,40
2018-06-13T02:00:13.000Z,40
2018-06-13T02:01:13.000Z,40
2018-06-13T02:02:13.000Z,40
2018-06-13T02:04:13.000Z,40
2018-06-13T02:06:13.000Z,40
2018-06-13T02:07:13.000Z,40
2018-06-13T02:08:13.000Z,40
2018-06-13T02:09:13.000Z,40
2018-06-13T02:10:13.000Z,41
2018-06-13T02:11:13.000Z,41
2018-06-13T02:12:13.000Z,41
2018-06-13T02:13:13.000Z,40
2018-06-13T02:14:13.000Z,40
2018-06-13T02:15:13.000Z,40
2018-06-13T02:16:13.000Z,40
2018-06-13T02:17:13.000Z,40
2018-06-13T02:18:13.000Z,40
2018-06-13T02:19:13.000Z,40
2018-06-13T02:20:13.000Z,40
2018-06-13T02:21:13.000Z,40
2018-06-13T02:22:13.000Z,40
2018-06-13T02:23:13.000Z,40
2018-06-13T02:24:13.000Z,40
2018-06-13T02:25:13.000Z,40
2018-06-13T02:26:13.000Z,40
2018-06-13T02:27:13.000Z,40
2018-06-13T02:28:13.000Z,40
2018-06-13T02:29:13.000Z,40
2018-06-13T02:30:13.000Z,40
2018-06-13T02:32:13.000Z,40
2018-06-13T02:33:13.000Z,40
2018-06-13T02:34:13.000Z,40
2018-06-13T02:35:13.000Z,40
2018-06-13T02:37:13.000Z,40
2018-06-13T02:39:13.000Z,40
2018-06-13T02:40:13.000Z,41
2018-06-13T02:41:13.000Z,41
2018-06-13T02:42:13.000Z,41
2018-06-13T02:43:13.000Z,41
2018-06-13T02:44:13.000Z,41
2018-06-13T02:45:13.000Z,40
2018-06-13T02:46:13.000Z,41
2018-06-13T02:47:13.000Z,40
2018-06-13T02:49:13.000Z,40
2018-06-13T02:50:13.000Z,41
2018-06-13T02:51:13.000Z,41
2018-06-13T02:52:13.000Z,41
2018-06-13T02:53:13.000Z,41
2018-06-13T02:54:13.000Z,41
2018-06-13T02:55:13.000Z,40
2018-06-13T02:56:13.000Z,41
2018-06-13T02:57:13.000Z,40
2018-06-13T02:58:13.000Z,41
2018-06-13T02:59:13.000Z,40
2018-06-13T03:00:13.000Z,41
2018-06-13T03:01:13.000Z,40
2018-06-13T03:02:14.000Z,41
2018-06-13T03:03:14.000Z,41
2018-06-13T03:05:14.000Z,40
2018-06-13T03:06:14.000Z,41
2018-06-13T03:07:14.000Z,41
2018-06-13T03:08:14.000Z,41
2018-06-13T03:09:14.000Z,40
2018-06-13T03:10:14.000Z,41
2018-06-13T03:11:14.000Z,40
2018-06-13T03:12:14.000Z,41
2018-06-13T03:13:14.000Z,41
2018-06-13T03:14:14.000Z,41
2018-06-13T03:15:14.000Z,41
2018-06-13T03:16:14.000Z,41
2018-06-13T03:17:14.000Z,41
2018-06-13T03:18:14.000Z,41
2018-06-13T03:20:14.000Z,41
2018-06-13T03:21:14.000Z,41
2018-06-13T03:23:14.000Z,40
2018-06-13T03:24:14.000Z,41
2018-06-13T03:25:14.000Z,40
2018-06-13T03:26:14.000Z,41
2018-06-13T03:27:14.000Z,41
2018-06-13T03:28:14.000Z,41
2018-06-13T03:29:14.000Z,41
2018-06-13T03:30:14.000Z,41
2018-06-13T03:31:14.000Z,41
2018-06-13T03:33:14.000Z,41
2018-06-13T03:34:14.000Z,41
2018-06-13T03:35:14.000Z,41
2018-06-13T03:36:14.000Z,41
2018-06-13T03:37:14.000Z,41
2018-06-13T03:38:14.000Z,41
2018-06-13T03:39:14.000Z,41
2018-06-13T03:40:14.000Z,41
2018-06-13T03:41:14.000Z,41
2018-06-13T03:42:14.000Z,41
2018-06-13T03:43:14.000Z,41
2018-06-13T03:44:14.000Z,41
2018-06-13T03:45:14.000Z,41
2018-06-13T03:46:14.000Z,41
2018-06-13T03:47:14.000Z,41
2018-06-13T03:48:14.000Z,41
2018-06-13T03:49:14.000Z,41
2018-06-13T03:50:14.000Z,41
2018-06-13T03:51:14.000Z,41
2018-06-13T03:52:14.000Z,41
2018-06-13T03:53:14.000Z,41
2018-06-13T03:54:14.000Z,41
2018-06-13T03:55:14.000Z,40
2018-06-13T03:56:14.000Z,41
2018-06-13T03:58:14.000Z,40
2018-06-13T03:59:14.000Z,40
2018-06-13T04:00:14.000Z,40
2018-06-13T04:01:14.000Z,40
2018-06-13T04:02:14.000Z,40
2018-06-13T04:04:14.000Z,40
2018-06-13T04:05:14.000Z,41
2018-06-13T04:06:14.000Z,41
2018-06-13T04:07:14.000Z,41
2018-06-13T04:08:14.000Z,40
2018-06-13T04:09:14.000Z,41
2018-06-13T04:11:14.000Z,40
2018-06-13T04:12:14.000Z,40
2018-06-13T04:13:14.000Z,41
2018-06-13T04:14:14.000Z,41
2018-06-13T04:15:14.000Z,40
2018-06-13T04:16:14.000Z,40
2018-06-13T04:18:14.000Z,40
2018-06-13T04:19:14.000Z,40
2018-06-13T04:20:14.000Z,41
2018-06-13T04:21:14.000Z,40
2018-06-13T04:22:14.000Z,41
2018-06-13T04:23:14.000Z,40
2018-06-13T04:24:14.000Z,41
2018-06-13T04:25:14.000Z,40
2018-06-13T04:26:14.000Z,41
2018-06-13T04:27:14.000Z,40
2018-06-13T04:28:14.000Z,40
2018-06-13T04:29:14.000Z,40
2018-06-13T04:31:14.000Z,40
2018-06-13T04:33:14.000Z,40
2018-06-13T04:34:14.000Z,41
2018-06-13T04:35:14.000Z,41
2018-06-13T04:36:14.000Z,41
2018-06-13T04:37:14.000Z,41
2018-06-13T04:38:14.000Z,41
2018-06-13T04:39:14.000Z,41
2018-06-13T04:40:14.000Z,41
2018-06-13T04:41:14.000Z,41
2018-06-13T04:42:14.000Z,41
2018-06-13T04:43:14.000Z,41
2018-06-13T04:44:14.000Z,41
2018-06-13T04:45:14.000Z,41
2018-06-13T04:46:14.000Z,41
2018-06-13T04:47:14.000Z,41
2018-06-13T04:48:14.000Z,41
2018-06-13T04:50:51.000Z,41
2018-06-13T04:51:51.000Z,41
2018-06-13T04:53:51.000Z,40
2018-06-13T04:54:51.000Z,40
2018-06-13T04:56:51.000Z,40
2018-06-13T04:57:51.000Z,40
2018-06-13T04:58:51.000Z,40
2018-06-13T04:59:51.000Z,40
2018-06-13T05:00:51.000Z,40
2018-06-13T05:01:51.000Z,40
2018-06-13T05:02:51.000Z,40
2018-06-13T05:03:51.000Z,40
2018-06-13T05:04:51.000Z,40
2018-06-13T05:05:51.000Z,40
2018-06-13T05:06:51.000Z,40
2018-06-13T05:07:51.000Z,40
2018-06-13T05:08:51.000Z,40
2018-06-13T05:09:51.000Z,40
2018-06-13T05:10:51.000Z,40
2018-06-13T05:12:51.000Z,39
2018-06-13T05:13:51.000Z,39
2018-06-13T05:14:51.000Z,39
2018-06-13T05:15:51.000Z,39
2018-06-13T05:17:51.000Z,39
2018-06-13T05:18:51.000Z,39
2018-06-13T05:19:51.000Z,39
2018-06-13T05:20:51.000Z,39
2018-06-13T05:21:51.000Z,39
2018-06-13T05:22:51.000Z,39
2018-06-13T05:23:51.000Z,39
2018-06-13T05:24:51.000Z,39
2018-06-13T05:25:51.000Z,39
2018-06-13T05:26:51.000Z,39
2018-06-13T05:27:51.000Z,39
2018-06-13T05:28:51.000Z,39
2018-06-13T05:29:51.000Z,39
2018-06-13T05:30:51.000Z,39
2018-06-13T05:31:51.000Z,39
2018-06-13T05:32:51.000Z,39
2018-06-13T05:34:51.000Z,39
2018-06-13T05:35:51.000Z,39
2018-06-13T05:36:51.000Z,39
2018-06-13T05:37:51.000Z,39
2018-06-13T05:38:51.000Z,39
2018-06-13T05:40:51.000Z,39
2018-06-13T05:41:51.000Z,39
2018-06-13T05:43:51.000Z,38
2018-06-13T05:44:51.000Z,39
2018-06-13T05:45:51.000Z,38
2018-06-13T05:46:51.000Z,38
2018-06-13T05:47:51.000Z,39
2018-06-13T05:48:51.000Z,39
2018-06-13T05:49:51.000Z,39
2018-06-13T05:50:51.000Z,39
2018-06-13T05:52:51.000Z,39
2018-06-13T05:53:51.000Z,39
2018-06-13T05:54:52.000Z,39
2018-06-13T05:55:52.000Z,39
2018-06-13T05:56:52.000Z,39
2018-06-13T05:57:52.000Z,39
2018-06-13T05:58:52.000Z,39
2018-06-13T05:59:52.000Z,38
2018-06-13T06:01:52.000Z,38
2018-06-13T06:02:52.000Z,38
2018-06-13T06:03:52.000Z,38
2018-06-13T06:04:52.000Z,38
2018-06-13T06:06:52.000Z,38
2018-06-13T06:07:52.000Z,38
2018-06-13T06:08:52.000Z,38
2018-06-13T06:09:52.000Z,38
2018-06-13T06:10:52.000Z,38
2018-06-13T06:11:52.000Z,38
2018-06-13T06:12:52.000Z,38
2018-06-13T06:13:52.000Z,38
2018-06-13T06:14:52.000Z,38
2018-06-13T06:15:52.000Z,38
2018-06-13T06:16:52.000Z,38
2018-06-13T06:17:52.000Z,38
2018-06-13T06:18:52.000Z,38
2018-06-13T06:19:52.000Z,38
2018-06-13T06:20:52.000Z,38
2018-06-13T06:21:52.000Z,38
2018-06-13T06:22:52.000Z,38
2018-06-13T06:23:52.000Z,38
2018-06-13T06:24:52.000Z,38
2018-06-13T06:25:52.000Z,38
2018-06-13T06:26:52.000Z,38
2018-06-13T06:28:52.000Z,38
2018-06-13T06:29:52.000Z,38
2018-06-13T06:30:52.000Z,38
2018-06-13T06:31:52.000Z,38
2018-06-13T06:32:52.000Z,38
2018-06-13T06:33:52.000Z,38
2018-06-13T06:34:52.000Z,38
2018-06-13T06:35:52.000Z,38
2018-06-13T06:36:52.000Z,38
2018-06-13T06:37:52.000Z,38
2018-06-13T06:38:52.000Z,38
2018-06-13T06:39:52.000Z,38
2018-06-13T06:40:52.000Z,38
2018-06-13T06:41:52.000Z,38
2018-06-13T06:42:52.000Z,38
2018-06-13T06:43:52.000Z,38
2018-06-13T06:44:52.000Z,38
2018-06-13T06:45:52.000Z,38
2018-06-13T06:46:52.000Z,39
2018-06-13T06:47:52.000Z,38
2018-06-13T06:48:52.000Z,38
2018-06-13T06:49:52.000Z,38
2018-06-13T06:50:52.000Z,38
2018-06-13T06:51:52.000Z,38
2018-06-13T06:52:52.000Z,38
2018-06-13T06:53:52.000Z,38
2018-06-13T06:54:52.000Z,38
2018-06-13T06:55:52.000Z,38
2018-06-13T06:56:52.000Z,38
2018-06-13T06:57:52.000Z,38
2018-06-13T06:58:51.000Z,38
2018-06-13T06:59:51.000Z,38
2018-06-13T07:00:51.000Z,38
2018-06-13T07:01:51.000Z,38
2018-06-13T07:02:51.000Z,38
2018-06-13T07:03:51.000Z,38
2018-06-13T07:04:51.000Z,38
2018-06-13T07:05:51.000Z,38
2018-06-13T07:07:51.000Z,38
2018-06-13T07:09:51.000Z,38
2018-06-13T07:10:51.000Z,38
2018-06-13T07:11:51.000Z,38
2018-06-13T07:12:51.000Z,38
2018-06-13T07:13:51.000Z,38
2018-06-13T07:14:51.000Z,38
2018-06-13T07:16:51.000Z,38
2018-06-13T07:17:51.000Z,38
2018-06-13T07:19:51.000Z,37
2018-06-13T07:20:51.000Z,37
2018-06-13T07:21:51.000Z,37
2018-06-13T07:23:51.000Z,37
2018-06-13T07:24:51.000Z,37
2018-06-13T07:25:51.000Z,37
2018-06-13T07:26:51.000Z,37
2018-06-13T07:27:51.000Z,37
2018-06-13T07:28:51.000Z,37
2018-06-13T07:29:51.000Z,37
2018-06-13T07:30:51.000Z,37
2018-06-13T07:31:51.000Z,37
2018-06-13T07:32:51.000Z,37
2018-06-13T07:33:51.000Z,37
2018-06-13T07:34:51.000Z,37
2018-06-13T07:35:51.000Z,37
2018-06-13T07:36:51.000Z,37
2018-06-13T07:37:51.000Z,37
2018-06-13T07:38:51.000Z,37
2018-06-13T07:39:51.000Z,37
2018-06-13T07:40:51.000Z,37
2018-06-13T07:42:51.000Z,37
2018-06-13T07:44:51.000Z,37
2018-06-13T07:45:51.000Z,37
2018-06-13T07:46:51.000Z,37
2018-06-13T07:47:51.000Z,37
2018-06-13T07:49:51.000Z,37
2018-06-13T07:50:51.000Z,37
2018-06-13T07:51:51.000Z,37
2018-06-13T07:52:51.000Z,37
2018-06-13T07:54:51.000Z,37
2018-06-13T07:55:51.000Z,37
2018-06-13T07:56:51.000Z,37
2018-06-13T07:57:51.000Z,37
2018-06-13T07:58:51.000Z,37
2018-06-13T07:59:51.000Z,37
2018-06-13T08:00:51.000Z,37
2018-06-13T08:01:51.000Z,37
2018-06-13T08:02:51.000Z,37
2018-06-13T08:03:51.000Z,37
2018-06-13T08:04:51.000Z,37
2018-06-13T08:05:51.000Z,37
2018-06-13T08:06:51.000Z,37
2018-06-13T08:07:51.000Z,37
2018-06-13T08:08:51.000Z,37
2018-06-13T08:09:51.000Z,36
2018-06-13T08:10:51.000Z,36
2018-06-13T08:11:51.000Z,36
2018-06-13T08:12:51.000Z,36
2018-06-13T08:13:51.000Z,36
2018-06-13T08:14:51.000Z,36
2018-06-13T08:15:51.000Z,36
2018-06-13T08:58:56.000Z,37
2018-06-13T08:59:56.000Z,37
2018-06-13T09:00:56.000Z,37
2018-06-13T09:02:56.000Z,37
2018-06-13T09:03:56.000Z,37
2018-06-13T09:04:56.000Z,37
2018-06-13T09:05:56.000Z,36
2018-06-13T09:06:56.000Z,36
2018-06-13T09:07:56.000Z,36
2018-06-13T09:08:56.000Z,36
2018-06-13T09:09:56.000Z,36
2018-06-13T09:10:56.000Z,35
2018-06-13T09:11:56.000Z,35
2018-06-13T09:12:56.000Z,35
2018-06-13T09:13:56.000Z,35
2018-06-13T09:14:56.000Z,35
2018-06-13T09:15:56.000Z,35
2018-06-13T09:16:56.000Z,35
2018-06-13T09:17:56.000Z,35
2018-06-13T09:18:56.000Z,35
2018-06-13T09:19:56.000Z,35
2018-06-13T09:20:56.000Z,35
2018-06-13T09:21:56.000Z,35
2018-06-13T09:22:56.000Z,35
2018-06-13T09:23:56.000Z,35
2018-06-13T09:24:56.000Z,35
2018-06-13T09:26:56.000Z,35
2018-06-13T09:27:56.000Z,35
2018-06-13T09:28:56.000Z,35
2018-06-13T09:29:56.000Z,35
2018-06-13T09:30:56.000Z,35
2018-06-13T09:31:56.000Z,34
2018-06-13T09:32:56.000Z,35
2018-06-13T09:33:56.000Z,34
2018-06-13T09:34:56.000Z,34
2018-06-13T09:35:56.000Z,34
2018-06-13T09:36:56.000Z,34
2018-06-13T09:38:56.000Z,34
2018-06-13T09:39:56.000Z,34
2018-06-13T09:40:56.000Z,34
2018-06-13T09:41:56.000Z,34
2018-06-13T09:42:56.000Z,34
2018-06-13T09:43:56.000Z,34
2018-06-13T09:44:56.000Z,34
2018-06-13T09:45:56.000Z,34
2018-06-13T09:46:56.000Z,34
2018-06-13T09:47:56.000Z,34
2018-06-13T09:48:56.000Z,35
2018-06-13T09:49:56.000Z,34
2018-06-13T09:50:56.000Z,34
2018-06-13T09:51:56.000Z,34
2018-06-13T09:52:56.000Z,34
2018-06-13T09:53:56.000Z,34
2018-06-13T09:54:56.000Z,34
2018-06-13T09:55:56.000Z,34
2018-06-13T09:56:56.000Z,34
2018-06-13T09:57:56.000Z,34
2018-06-13T09:58:56.000Z,34
2018-06-13T09:59:56.000Z,34
2018-06-13T10:00:56.000Z,34
2018-06-13T10:01:56.000Z,34
2018-06-13T10:02:56.000Z,34
2018-06-13T10:04:56.000Z,34
2018-06-13T10:05:56.000Z,34
2018-06-13T10:06:56.000Z,34
2018-06-13T10:07:56.000Z,34
2018-06-13T10:08:56.000Z,34
2018-06-13T10:10:56.000Z,34
2018-06-13T10:11:56.000Z,34
2018-06-13T10:12:56.000Z,34
2018-06-13T10:13:56.000Z,34
2018-06-13T10:14:56.000Z,34
2018-06-13T10:15:56.000Z,34
2018-06-13T10:16:56.000Z,33
2018-06-13T10:17:56.000Z,33
2018-06-13T10:18:56.000Z,33
2018-06-13T10:19:56.000Z,33
2018-06-13T10:20:56.000Z,33
2018-06-13T10:21:56.000Z,33
2018-06-13T10:22:56.000Z,33
2018-06-13T10:24:56.000Z,33
2018-06-13T10:25:56.000Z,33
2018-06-13T10:26:56.000Z,33
2018-06-13T10:27:56.000Z,33
2018-06-13T10:28:56.000Z,33
2018-06-13T10:30:56.000Z,32
2018-06-13T10:31:56.000Z,33
2018-06-13T10:33:56.000Z,32
2018-06-13T10:35:56.000Z,32
2018-06-13T10:36:56.000Z,33
2018-06-13T10:37:56.000Z,33
2018-06-13T10:38:56.000Z,33
2018-06-13T10:39:56.000Z,33
2018-06-13T10:41:56.000Z,33
2018-06-13T10:42:56.000Z,33
2018-06-13T10:43:56.000Z,33
2018-06-13T10:44:56.000Z,33
2018-06-13T10:45:56.000Z,32
2018-06-13T10:46:56.000Z,32
2018-06-13T10:47:56.000Z,32
2018-06-13T10:49:56.000Z,32
2018-06-13T10:50:56.000Z,32
2018-06-13T10:51:56.000Z,32
2018-06-13T10:52:56.000Z,32
2018-06-13T10:53:56.000Z,32
2018-06-13T10:54:56.000Z,32
2018-06-13T10:55:56.000Z,32
2018-06-13T10:56:56.000Z,32
2018-06-13T10:57:56.000Z,32
2018-06-13T10:58:56.000Z,32
2018-06-13T11:00:56.000Z,32
2018-06-13T11:01:56.000Z,32
2018-06-13T11:02:56.000Z,32
2018-06-13T11:03:56.000Z,32
2018-06-13T11:04:56.000Z,32
2018-06-13T11:05:56.000Z,32
2018-06-13T11:06:56.000Z,32
2018-06-13T11:07:56.000Z,32
2018-06-13T11:08:56.000Z,32
2018-06-13T11:09:56.000Z,32
2018-06-13T11:11:56.000Z,32
2018-06-13T11:12:56.000Z,32
2018-06-13T11:13:56.000Z,32
2018-06-13T11:14:56.000Z,32
2018-06-13T11:15:56.000Z,32
2018-06-13T11:16:56.000Z,33
2018-06-13T11:17:56.000Z,32
2018-06-13T11:18:56.000Z,33
2018-06-13T11:19:56.000Z,33
2018-06-13T11:20:56.000Z,33
2018-06-13T11:21:56.000Z,32
2018-06-13T11:22:56.000Z,32
2018-06-13T11:23:56.000Z,33
2018-06-13T11:24:56.000Z,33
2018-06-13T11:25:56.000Z,32
2018-06-13T11:26:56.000Z,33
2018-06-13T11:27:56.000Z,33
2018-06-13T11:28:56.000Z,32
2018-06-13T11:29:56.000Z,33
2018-06-13T11:30:56.000Z,33
2018-06-13T11:31:56.000Z,33
2018-06-13T11:32:56.000Z,33
2018-06-13T11:33:56.000Z,33
2018-06-13T11:34:56.000Z,33
2018-06-13T11:36:56.000Z,33
2018-06-13T11:38:56.000Z,33
2018-06-13T11:39:56.000Z,33
2018-06-13T11:40:56.000Z,33
2018-06-13T11:41:56.000Z,33
2018-06-13T11:42:56.000Z,33
2018-06-13T11:43:56.000Z,33
2018-06-13T11:44:56.000Z,33
2018-06-13T11:46:56.000Z,33
2018-06-13T11:47:56.000Z,33
2018-06-13T11:48:56.000Z,33
2018-06-13T11:49:56.000Z,34
2018-06-13T11:50:56.000Z,34
2018-06-13T11:51:56.000Z,34
2018-06-13T11:52:56.000Z,34
2018-06-13T11:54:56.000Z,33
2018-06-13T11:55:56.000Z,33
2018-06-13T11:56:56.000Z,33
2018-06-13T11:57:56.000Z,33
2018-06-13T11:58:56.000Z,33
2018-06-13T11:59:56.000Z,33
2018-06-13T12:00:56.000Z,33
2018-06-13T12:01:56.000Z,33
2018-06-13T12:02:56.000Z,32
2018-06-13T12:03:56.000Z,32
2018-06-13T12:04:56.000Z,32
2018-06-13T12:05:56.000Z,32
2018-06-13T12:07:56.000Z,32
2018-06-13T12:08:56.000Z,32
2018-06-13T12:09:56.000Z,32
2018-06-13T12:10:56.000Z,32
2018-06-13T12:11:56.000Z,32
2018-06-13T12:12:56.000Z,32
2018-06-13T12:13:56.000Z,31
2018-06-13T12:14:56.000Z,31
2018-06-13T12:15:56.000Z,31
2018-06-13T12:16:56.000Z,31
2018-06-13T12:17:56.000Z,31
2018-06-13T12:18:56.000Z,31
2018-06-13T12:19:56.000Z,31
2018-06-13T12:20:56.000Z,31
2018-06-13T12:21:56.000Z,31
2018-06-13T12:23:56.000Z,31
2018-06-13T12:24:56.000Z,31
2018-06-13T12:25:56.000Z,31
2018-06-13T12:26:56.000Z,31
2018-06-13T12:27:56.000Z,31
2018-06-13T12:28:56.000Z,31
2018-06-13T12:30:56.000Z,31
2018-06-13T12:31:56.000Z,31
2018-06-13T12:32:56.000Z,31
2018-06-13T12:33:56.000Z,31
2018-06-13T12:34:56.000Z,31
2018-06-13T12:35:56.000Z,31
2018-06-13T12:36:56.000Z,31
2018-06-13T12:37:56.000Z,31
2018-06-13T12:38:56.000Z,31
2018-06-13T12:39:56.000Z,31
2018-06-13T12:40:56.000Z,31
2018-06-13T12:41:56.000Z,31
2018-06-13T12:42:56.000Z,31
2018-06-13T12:43:56.000Z,31
2018-06-13T12:44:56.000Z,31
2018-06-13T12:45:56.000Z,31
2018-06-13T12:46:56.000Z,31
2018-06-13T12:48:56.000Z,31
2018-06-13T12:49:56.000Z,31
2018-06-13T12:50:56.000Z,31
2018-06-13T12:51:56.000Z,31
2018-06-13T12:52:56.000Z,31
2018-06-13T12:54:56.000Z,31
2018-06-13T12:55:56.000Z,31
2018-06-13T12:56:56.000Z,31
2018-06-13T12:57:56.000Z,31
2018-06-13T12:58:56.000Z,31
2018-06-13T12:59:56.000Z,31
2018-06-13T13:01:56.000Z,31
2018-06-13T13:02:56.000Z,31
2018-06-13T13:03:56.000Z,31
2018-06-13T13:05:56.000Z,31
2018-06-13T13:06:56.000Z,31
2018-06-13T13:07:56.000Z,30
2018-06-13T13:08:56.000Z,30
2018-06-13T13:09:56.000Z,30
2018-06-13T13:10:56.000Z,30
2018-06-13T13:11:56.000Z,30
2018-06-13T13:12:56.000Z,30
2018-06-13T13:13:56.000Z,30
2018-06-13T13:14:56.000Z,30
2018-06-13T13:16:56.000Z,30
2018-06-13T13:17:56.000Z,30
2018-06-13T13:18:56.000Z,30
2018-06-13T13:19:56.000Z,30
2018-06-13T13:20:56.000Z,30
2018-06-13T13:21:56.000Z,31
2018-06-13T13:22:56.000Z,31
2018-06-13T13:23:56.000Z,31
2018-06-13T13:24:56.000Z,31
2018-06-13T13:25:56.000Z,31
2018-06-13T13:26:56.000Z,31
2018-06-13T13:27:56.000Z,31
2018-06-13T13:28:56.000Z,30
2018-06-13T13:29:56.000Z,30
2018-06-13T13:31:56.000Z,30
2018-06-13T13:32:56.000Z,30
2018-06-13T13:33:56.000Z,30
2018-06-13T13:35:56.000Z,30
2018-06-13T13:36:56.000Z,30
2018-06-13T13:37:56.000Z,30
2018-06-13T13:38:56.000Z,30
2018-06-13T13:39:56.000Z,30
2018-06-13T13:41:56.000Z,30
2018-06-13T13:42:56.000Z,30
2018-06-13T13:43:56.000Z,30
2018-06-13T13:44:56.000Z,30
2018-06-13T13:45:56.000Z,30
2018-06-13T13:46:56.000Z,30
2018-06-13T13:47:56.000Z,30
2018-06-13T13:48:56.000Z,30
2018-06-13T13:49:56.000Z,30
2018-06-13T13:50:56.000Z,30
2018-06-13T13:51:56.000Z,30
2018-06-13T13:52:56.000Z,29
2018-06-13T13:53:56.000Z,29
2018-06-13T13:54:56.000Z,29
2018-06-13T13:55:56.000Z,29
2018-06-13T13:56:56.000Z,29
2018-06-13T13:57:56.000Z,29
2018-06-13T13:58:56.000Z,29
2018-06-13T13:59:56.000Z,29
2018-06-13T14:00:56.000Z,29
2018-06-13T14:02:56.000Z,29
2018-06-13T14:03:56.000Z,29
2018-06-13T14:04:56.000Z,29
2018-06-13T14:05:56.000Z,29
2018-06-13T14:06:56.000Z,30
2018-06-13T14:07:56.000Z,30
2018-06-13T14:08:56.000Z,30
2018-06-13T14:10:56.000Z,29
2018-06-13T14:11:56.000Z,29
2018-06-13T14:12:56.000Z,29
2018-06-13T14:13:56.000Z,29
2018-06-13T14:14:56.000Z,29
2018-06-13T14:15:56.000Z,29
2018-06-13T14:17:56.000Z,29
2018-06-13T14:19:56.000Z,29
2018-06-13T14:20:56.000Z,29
2018-06-13T14:21:56.000Z,29
2018-06-13T14:22:56.000Z,29
2018-06-13T14:23:56.000Z,29
2018-06-13T14:24:56.000Z,29
2018-06-13T14:25:56.000Z,29
2018-06-13T14:26:56.000Z,29
2018-06-13T14:28:56.000Z,29
2018-06-13T14:29:56.000Z,29
2018-06-13T14:30:56.000Z,29
2018-06-13T14:32:56.000Z,29
2018-06-13T14:33:56.000Z,30
2018-06-13T14:34:56.000Z,30
2018-06-13T14:36:56.000Z,29
2018-06-13T14:38:56.000Z,29
2018-06-13T14:40:56.000Z,29
2018-06-13T14:41:56.000Z,30
2018-06-13T14:42:56.000Z,30
2018-06-13T14:43:56.000Z,30
2018-06-13T14:44:56.000Z,30
2018-06-13T14:45:56.000Z,30
2018-06-13T14:47:56.000Z,30
2018-06-13T14:48:56.000Z,30
2018-06-13T14:49:56.000Z,30
2018-06-13T14:50:56.000Z,30
2018-06-13T14:51:56.000Z,30
2018-06-13T14:52:56.000Z,30
2018-06-13T14:53:56.000Z,29
2018-06-13T14:55:56.000Z,29
2018-06-13T14:56:56.000Z,29
2018-06-13T14:57:56.000Z,29
2018-06-13T14:58:56.000Z,29
2018-06-13T15:00:56.000Z,29
2018-06-13T15:01:56.000Z,29
2018-06-13T15:03:56.000Z,29
2018-06-13T15:04:56.000Z,30
2018-06-13T15:05:56.000Z,30
2018-06-13T15:06:56.000Z,30
2018-06-13T15:07:56.000Z,30
2018-06-13T15:08:56.000Z,30
2018-06-13T15:09:56.000Z,30
2018-06-13T15:11:56.000Z,29
2018-06-13T15:12:56.000Z,30
2018-06-13T15:13:56.000Z,30
2018-06-13T15:14:56.000Z,30
2018-06-13T15:16:56.000Z,30
2018-06-13T15:18:56.000Z,30
2018-06-13T15:19:56.000Z,30
2018-06-13T15:20:56.000Z,30
2018-06-13T15:21:56.000Z,30
2018-06-13T15:22:56.000Z,30
2018-06-13T15:24:56.000Z,30
2018-06-13T15:25:56.000Z,30
2018-06-13T15:26:56.000Z,30
2018-06-13T15:27:56.000Z,30
2018-06-13T15:28:56.000Z,30
2018-06-13T15:29:56.000Z,30
2018-06-13T15:30:56.000Z,30
2018-06-13T15:31:56.000Z,30
2018-06-13T15:32:56.000Z,30
2018-06-13T15:33:56.000Z,30
2018-06-13T15:34:56.000Z,30
2018-06-13T15:35:56.000Z,30
2018-06-13T15:36:56.000Z,30
2018-06-13T15:37:56.000Z,30
2018-06-13T15:38:56.000Z,30
2018-06-13T15:39:56.000Z,30
2018-06-13T15:40:56.000Z,30
2018-06-13T15:41:56.000Z,30
2018-06-13T15:42:56.000Z,30
2018-06-13T15:43:56.000Z,30
2018-06-13T15:44:56.000Z,30
2018-06-13T15:45:56.000Z,30
2018-06-13T15:46:56.000Z,30
2018-06-13T15:47:56.000Z,30
2018-06-13T15:48:56.000Z,30
2018-06-13T15:49:56.000Z,30
2018-06-13T15:50:56.000Z,30
2018-06-13T15:51:56.000Z,30
2018-06-13T15:52:56.000Z,30
2018-06-13T15:53:56.000Z,30
2018-06-13T15:54:56.000Z,30
2018-06-13T15:55:56.000Z,30
2018-06-13T15:56:56.000Z,30
2018-06-13T15:58:56.000Z,30
2018-06-13T15:59:56.000Z,30
2018-06-13T16:00:56.000Z,30
2018-06-13T16:01:56.000Z,30
2018-06-13T16:02:56.000Z,30
2018-06-13T16:03:56.000Z,30
2018-06-13T16:04:56.000Z,30
2018-06-13T16:05:56.000Z,30
2018-06-13T16:06:56.000Z,30
2018-06-13T16:07:56.000Z,30
2018-06-13T16:09:56.000Z,30
2018-06-13T16:10:56.000Z,30
2018-06-13T16:11:56.000Z,30
2018-06-13T16:12:56.000Z,30
2018-06-13T16:13:56.000Z,30
2018-06-13T16:14:56.000Z,30
2018-06-13T16:16:56.000Z,30
2018-06-13T16:17:56.000Z,30
2018-06-13T16:18:56.000Z,30
2018-06-13T16:19:56.000Z,30
2018-06-13T16:20:56.000Z,30
2018-06-13T16:21:56.000Z,30
2018-06-13T16:22:56.000Z,30
2018-06-13T16:23:56.000Z,30
2018-06-13T16:24:56.000Z,30
2018-06-13T16:26:56.000Z,30
2018-06-13T16:27:56.000Z,30
2018-06-13T16:28:56.000Z,30
2018-06-13T16:29:56.000Z,30
2018-06-13T16:30:56.000Z,30
2018-06-13T16:31:56.000Z,30
2018-06-13T16:32:56.000Z,30
2018-06-13T16:33:56.000Z,31
2018-06-13T16:35:56.000Z,30
2018-06-13T16:36:56.000Z,31
2018-06-13T16:37:56.000Z,30
2018-06-13T16:38:56.000Z,30